Arthur, Tennessee
Current Conditions -  °F | °C
As of 5:35 AM on Friday 24 Oct 2014 (Local Time) from K1A6 Reporting Station
Overcast Overcast  
Wind Chill: 41°   Ceiling: 200
Heat Index: 41°   Visibility: 7mi
Dew Point: 41°   Wind: 0mph
Humidity: 99%   Direction: NA
Pressure: 30.14"   Gusts: NA
Location:  36.55°N, 83.67°W
Report Text: K1A6 240935Z AUTO 00000KT 7SM OVC002 05/05 A3014 RMK AO2 T00510050
Loading
Personal Weather Stations






























Interactive Weather Map
Tropical Storm Tracking
New forecast layout! Learn more

10-Day Weather Forecast

Advertisements
Track Severe Weather on mobile